Marble Bar Airport


Codes: YMBL/MBB
Name: Marble Bar Airport
City:
Country: Australia
Elevation: 194 ft.

Photos at Marble Bar Airport


   Photos courtesy of SpottingLog. You can add your own sightings and photos by signing up for a free trial today.



No photos found.

Weather at Marble Bar Airport


Time (UTC)DescriptionTempratureWindCloud coverageVisibilityPressureHumidity
21-Feb-2024 03:00Broken Clouds41°C13 mph, NE67%10000m1006hPa23%
21-Feb-2024 06:00Broken Clouds41°C16 mph, E70%10000m1005hPa21%
21-Feb-2024 09:00Broken Clouds42°C13 mph, E70%10000m1004hPa17%
21-Feb-2024 12:00Broken Clouds40°C11 mph, NE77%10000m1005hPa19%
21-Feb-2024 15:00Overcast Clouds35°C7 mph, NW98%10000m1006hPa33%
21-Feb-2024 18:00Overcast Clouds34°C4 mph, W91%10000m1006hPa39%
21-Feb-2024 21:00Overcast Clouds32°C2 mph, W97%10000m1007hPa42%
22-Feb-2024 00:00Overcast Clouds36°C7 mph, NE98%10000m1008hPa31%
22-Feb-2024 03:00Overcast Clouds40°C11 mph, NE100%10000m1006hPa24%
22-Feb-2024 06:00Overcast Clouds44°C16 mph, E96%10000m1003hPa17%
22-Feb-2024 09:00Overcast Clouds44°C20 mph, NE99%10000m1002hPa15%
22-Feb-2024 12:00Overcast Clouds35°C20 mph, N99%10000m1006hPa45%
22-Feb-2024 15:00Broken Clouds31°C11 mph, N79%10000m1008hPa64%
22-Feb-2024 18:00Broken Clouds29°C13 mph, N61%10000m1008hPa75%
22-Feb-2024 21:00Broken Clouds28°C11 mph, N81%10000m1008hPa79%
23-Feb-2024 00:00Broken Clouds30°C9 mph, N78%10000m1010hPa69%
23-Feb-2024 03:00Scattered Clouds36°C9 mph, NE33%10000m1010hPa42%
23-Feb-2024 06:00Scattered Clouds41°C13 mph, NE35%10000m1006hPa27%
23-Feb-2024 09:00Scattered Clouds41°C18 mph, N34%10000m1005hPa27%
23-Feb-2024 12:00Few Clouds31°C20 mph, NW20%10000m1008hPa60%
23-Feb-2024 15:00Broken Clouds29°C13 mph, NW69%10000m1010hPa65%
23-Feb-2024 18:00Broken Clouds28°C11 mph, W68%10000m1009hPa68%
23-Feb-2024 21:00Few Clouds28°C9 mph, W14%10000m1009hPa74%
24-Feb-2024 00:00Scattered Clouds30°C9 mph, SW30%10000m1010hPa63%
24-Feb-2024 03:00Broken Clouds36°C4 mph, W59%10000m1009hPa39%
24-Feb-2024 06:00Scattered Clouds40°C7 mph, NW38%10000m1005hPa28%
24-Feb-2024 09:00Scattered Clouds41°C18 mph, NW49%10000m1003hPa25%
24-Feb-2024 12:00Light Rain31°C11 mph, E63%10000m1009hPa52%
24-Feb-2024 15:00Broken Clouds31°C22 mph, W78%10000m1008hPa56%
24-Feb-2024 18:00Broken Clouds30°C13 mph, W73%10000m1007hPa59%
24-Feb-2024 21:00Scattered Clouds29°C11 mph, SW48%10000m1007hPa61%
25-Feb-2024 00:00Broken Clouds33°C13 mph, SW63%10000m1007hPa47%
25-Feb-2024 03:00Broken Clouds40°C2 mph, S80%10000m1005hPa22%
25-Feb-2024 06:00Overcast Clouds43°C4 mph, NE89%10000m1002hPa16%
25-Feb-2024 09:00Overcast Clouds42°C18 mph, NW99%10000m1001hPa22%
25-Feb-2024 12:00Broken Clouds32°C22 mph, NW81%10000m1005hPa52%
25-Feb-2024 15:00Broken Clouds30°C11 mph, NW64%10000m1008hPa56%
25-Feb-2024 18:00Light Rain30°C16 mph, NW77%10000m1005hPa55%
25-Feb-2024 21:00Scattered Clouds29°C11 mph, W49%10000m1007hPa57%
26-Feb-2024 00:00Broken Clouds31°C9 mph, NW61%10000m1008hPa55%